CCA4405 ZUUU-ZULS
Flight info
| Callsign | CCA4405 |
|---|---|
| Flight time | 2h 13m |
| Altitude | 34100 |
| Route | MUMGO9Z MUMGO B213 LXA |
| Aircraft | A319/M-SDE3FGHIRWY/LB1 |
Departure
| Time | 2026-04-29 08:46 |
|---|---|
| Airport | Chengdu Shuangliu International Airport (ZUUU) |
Arrival
| Time | 2026-04-29 10:59 |
|---|---|
| Airport | Lhasa Gonggar International Airport (ZULS) |
| Time | Latitude | Longitude | Altitude | Speed | Heading |
|---|---|---|---|---|---|
| 2026-04-29 08:32 | 30.57286 | 103.95038 | 1689 ft | 0 kts | 76° |
| 2026-04-29 08:38 | 30.57286 | 103.95034 | 1689 ft | 2 kts | 76° |
| 2026-04-29 08:38 | 30.57283 | 103.95023 | 1689 ft | 1 kts | 76° |
| 2026-04-29 08:39 | 30.57278 | 103.95007 | 1689 ft | 2 kts | 50° |
| 2026-04-29 08:39 | 30.57266 | 103.94996 | 1689 ft | 2 kts | 27° |
| 2026-04-29 08:39 | 30.57252 | 103.94991 | 1689 ft | 2 kts | 3° |
| 2026-04-29 08:39 | 30.57237 | 103.94993 | 1689 ft | 2 kts | 339° |
| 2026-04-29 08:40 | 30.57224 | 103.95001 | 1689 ft | 2 kts | 316° |
| 2026-04-29 08:40 | 30.57216 | 103.95013 | 1689 ft | 0 kts | 295° |
| 2026-04-29 08:40 | 30.57214 | 103.95020 | 1689 ft | 1 kts | 291° |
| 2026-04-29 08:40 | 30.57214 | 103.95021 | 1689 ft | 0 kts | 291° |
| 2026-04-29 08:41 | 30.57217 | 103.95013 | 1689 ft | 3 kts | 292° |
| 2026-04-29 08:42 | 30.57237 | 103.94953 | 1689 ft | 13 kts | 292° |
| 2026-04-29 08:42 | 30.57294 | 103.94791 | 1689 ft | 25 kts | 291° |
| 2026-04-29 08:42 | 30.57366 | 103.94691 | 1689 ft | 14 kts | 22° |
| 2026-04-29 08:42 | 30.57501 | 103.94751 | 1689 ft | 28 kts | 21° |
| 2026-04-29 08:43 | 30.57722 | 103.94853 | 1689 ft | 36 kts | 22° |
| 2026-04-29 08:43 | 30.57954 | 103.94961 | 1690 ft | 34 kts | 22° |
| 2026-04-29 08:43 | 30.58175 | 103.95064 | 1690 ft | 37 kts | 22° |
| 2026-04-29 08:43 | 30.58434 | 103.95184 | 1690 ft | 39 kts | 22° |
| 2026-04-29 08:44 | 30.58679 | 103.95298 | 1690 ft | 36 kts | 22° |
| 2026-04-29 08:44 | 30.58910 | 103.95406 | 1690 ft | 34 kts | 21° |
| 2026-04-29 08:44 | 30.59126 | 103.95507 | 1690 ft | 32 kts | 22° |
| 2026-04-29 08:44 | 30.59278 | 103.95558 | 1690 ft | 16 kts | 334° |
| 2026-04-29 08:45 | 30.59331 | 103.95445 | 1690 ft | 16 kts | 281° |
| 2026-04-29 08:45 | 30.59271 | 103.95361 | 1690 ft | 6 kts | 202° |
| 2026-04-29 08:45 | 30.59261 | 103.95357 | 1690 ft | 4 kts | 202° |
| 2026-04-29 08:45 | 30.59020 | 103.95243 | 1690 ft | 72 kts | 202° |
| 2026-04-29 08:46 | 30.58347 | 103.94930 | 1690 ft | 134 kts | 202° |
| 2026-04-29 08:46 | 30.57319 | 103.94449 | 1802 ft | 172 kts | 202° |
| 2026-04-29 08:46 | 30.56224 | 103.93902 | 2381 ft | 173 kts | 202° |
| 2026-04-29 08:46 | 30.55128 | 103.93338 | 3028 ft | 174 kts | 201° |
| 2026-04-29 08:47 | 30.54021 | 103.92785 | 3604 ft | 179 kts | 200° |
| 2026-04-29 08:47 | 30.52814 | 103.92194 | 4045 ft | 195 kts | 200° |
| 2026-04-29 08:47 | 30.51508 | 103.91560 | 4483 ft | 211 kts | 200° |
| 2026-04-29 08:47 | 30.50083 | 103.90870 | 4863 ft | 234 kts | 202° |
| 2026-04-29 08:48 | 30.48704 | 103.89775 | 5327 ft | 255 kts | 230° |
| 2026-04-29 08:48 | 30.47970 | 103.87859 | 5871 ft | 271 kts | 264° |
| 2026-04-29 08:48 | 30.48274 | 103.85686 | 6405 ft | 284 kts | 298° |
| 2026-04-29 08:48 | 30.49562 | 103.83901 | 6984 ft | 295 kts | 319° |
| 2026-04-29 08:49 | 30.51162 | 103.82320 | 7463 ft | 312 kts | 321° |
| 2026-04-29 08:49 | 30.52879 | 103.80655 | 7880 ft | 330 kts | 320° |
| 2026-04-29 08:49 | 30.54667 | 103.78876 | 8251 ft | 348 kts | 319° |
| 2026-04-29 08:49 | 30.56531 | 103.76976 | 8576 ft | 366 kts | 319° |
| 2026-04-29 08:50 | 30.58484 | 103.74963 | 8859 ft | 384 kts | 319° |
| 2026-04-29 08:50 | 30.60535 | 103.72839 | 9126 ft | 400 kts | 319° |
| 2026-04-29 08:50 | 30.62595 | 103.70614 | 9571 ft | 408 kts | 313° |
| 2026-04-29 08:50 | 30.64293 | 103.67984 | 10221 ft | 409 kts | 300° |
| 2026-04-29 08:51 | 30.65472 | 103.64986 | 10913 ft | 409 kts | 288° |
| 2026-04-29 08:51 | 30.66283 | 103.61839 | 11646 ft | 407 kts | 285° |
| 2026-04-29 08:51 | 30.67018 | 103.58723 | 12672 ft | 399 kts | 285° |
| 2026-04-29 08:51 | 30.67739 | 103.55654 | 13706 ft | 389 kts | 285° |
| 2026-04-29 08:52 | 30.68438 | 103.52690 | 14534 ft | 386 kts | 285° |
| 2026-04-29 08:52 | 30.69153 | 103.49683 | 15093 ft | 390 kts | 285° |
| 2026-04-29 08:52 | 30.69896 | 103.46584 | 15350 ft | 402 kts | 286° |
| 2026-04-29 08:52 | 30.70653 | 103.43436 | 15825 ft | 408 kts | 286° |
| 2026-04-29 08:53 | 30.71416 | 103.40270 | 16384 ft | 411 kts | 286° |
| 2026-04-29 08:53 | 30.72186 | 103.37069 | 16952 ft | 413 kts | 286° |
| 2026-04-29 08:53 | 30.72962 | 103.33843 | 17484 ft | 415 kts | 285° |
| 2026-04-29 08:53 | 30.73728 | 103.30640 | 17948 ft | 417 kts | 285° |
| 2026-04-29 08:54 | 30.74514 | 103.27349 | 18272 ft | 425 kts | 285° |
| 2026-04-29 08:54 | 30.75306 | 103.24034 | 18488 ft | 434 kts | 285° |
| 2026-04-29 08:54 | 30.76117 | 103.20637 | 18881 ft | 437 kts | 285° |
| 2026-04-29 08:54 | 30.76930 | 103.17228 | 19427 ft | 437 kts | 286° |
| 2026-04-29 08:55 | 30.77738 | 103.13821 | 19927 ft | 437 kts | 286° |
| 2026-04-29 08:55 | 30.78539 | 103.10477 | 20524 ft | 434 kts | 286° |
| 2026-04-29 08:55 | 30.79335 | 103.07138 | 21300 ft | 426 kts | 286° |
| 2026-04-29 08:55 | 30.79981 | 103.03786 | 21859 ft | 425 kts | 282° |
| 2026-04-29 08:56 | 30.80381 | 103.00394 | 22327 ft | 426 kts | 277° |
| 2026-04-29 08:56 | 30.80538 | 102.96922 | 22539 ft | 432 kts | 273° |
| 2026-04-29 08:56 | 30.80512 | 102.93414 | 22795 ft | 434 kts | 272° |
| 2026-04-29 08:56 | 30.80451 | 102.89908 | 23145 ft | 435 kts | 271° |
| 2026-04-29 08:57 | 30.80385 | 102.86422 | 23448 ft | 436 kts | 271° |
| 2026-04-29 08:57 | 30.80315 | 102.82890 | 23738 ft | 437 kts | 271° |
| 2026-04-29 08:57 | 30.80249 | 102.79380 | 24037 ft | 437 kts | 271° |
| 2026-04-29 08:57 | 30.80181 | 102.75825 | 24305 ft | 438 kts | 271° |
| 2026-04-29 08:58 | 30.80111 | 102.72280 | 24580 ft | 439 kts | 271° |
| 2026-04-29 08:58 | 30.80041 | 102.68763 | 24801 ft | 441 kts | 271° |
| 2026-04-29 08:58 | 30.79969 | 102.65195 | 25054 ft | 442 kts | 271° |
| 2026-04-29 08:58 | 30.79900 | 102.61630 | 25322 ft | 442 kts | 271° |
| 2026-04-29 08:59 | 30.79833 | 102.58054 | 25537 ft | 443 kts | 271° |
| 2026-04-29 08:59 | 30.79762 | 102.54462 | 25772 ft | 444 kts | 271° |
| 2026-04-29 08:59 | 30.79693 | 102.50921 | 25960 ft | 445 kts | 271° |
| 2026-04-29 08:59 | 30.79619 | 102.47308 | 26230 ft | 444 kts | 271° |
| 2026-04-29 09:00 | 30.79544 | 102.43774 | 26771 ft | 438 kts | 271° |
| 2026-04-29 09:00 | 30.79468 | 102.40248 | 27146 ft | 436 kts | 271° |
| 2026-04-29 09:00 | 30.79392 | 102.36770 | 27631 ft | 432 kts | 270° |
| 2026-04-29 09:00 | 30.79316 | 102.33309 | 28187 ft | 427 kts | 270° |
| 2026-04-29 09:01 | 30.79238 | 102.29853 | 28644 ft | 425 kts | 270° |
| 2026-04-29 09:01 | 30.79162 | 102.26450 | 29258 ft | 419 kts | 271° |
| 2026-04-29 09:01 | 30.79084 | 102.23135 | 30116 ft | 409 kts | 271° |
| 2026-04-29 09:01 | 30.79003 | 102.19933 | 31127 ft | 395 kts | 272° |
| 2026-04-29 09:02 | 30.78926 | 102.16817 | 32113 ft | 382 kts | 272° |
| 2026-04-29 09:02 | 30.78850 | 102.13782 | 32860 ft | 374 kts | 274° |
| 2026-04-29 09:02 | 30.78777 | 102.10777 | 33433 ft | 370 kts | 274° |
| 2026-04-29 09:02 | 30.78711 | 102.07818 | 33950 ft | 369 kts | 274° |
| 2026-04-29 09:03 | 30.78645 | 102.04825 | 34354 ft | 370 kts | 274° |
| 2026-04-29 09:03 | 30.78578 | 102.01849 | 34551 ft | 374 kts | 274° |
| 2026-04-29 09:03 | 30.78506 | 101.98779 | 34550 ft | 382 kts | 274° |
| 2026-04-29 09:04 | 30.78383 | 101.92572 | 34574 ft | 384 kts | 275° |
| 2026-04-29 09:04 | 30.78651 | 101.86402 | 34578 ft | 382 kts | 279° |
| 2026-04-29 09:05 | 30.79159 | 101.80240 | 34580 ft | 384 kts | 279° |
| 2026-04-29 09:05 | 30.79670 | 101.74049 | 34587 ft | 384 kts | 279° |
| 2026-04-29 09:06 | 30.80174 | 101.67937 | 34574 ft | 384 kts | 279° |
| 2026-04-29 09:06 | 30.80679 | 101.61751 | 34575 ft | 384 kts | 279° |
| 2026-04-29 09:07 | 30.81186 | 101.55562 | 34565 ft | 384 kts | 279° |
| 2026-04-29 09:07 | 30.81686 | 101.49404 | 34583 ft | 386 kts | 279° |
| 2026-04-29 09:08 | 30.82190 | 101.43153 | 34591 ft | 387 kts | 279° |
| 2026-04-29 09:08 | 30.82688 | 101.36974 | 34593 ft | 387 kts | 279° |
| 2026-04-29 09:09 | 30.83185 | 101.30737 | 34602 ft | 388 kts | 279° |
| 2026-04-29 09:09 | 30.83675 | 101.24490 | 34595 ft | 388 kts | 279° |
| 2026-04-29 09:10 | 30.84168 | 101.18259 | 34602 ft | 390 kts | 279° |
| 2026-04-29 09:10 | 30.84660 | 101.11987 | 34614 ft | 390 kts | 278° |
| 2026-04-29 09:11 | 30.85142 | 101.05737 | 34626 ft | 390 kts | 279° |
| 2026-04-29 09:11 | 30.85629 | 100.99450 | 34639 ft | 390 kts | 278° |
| 2026-04-29 09:12 | 30.86112 | 100.93173 | 34641 ft | 391 kts | 278° |
| 2026-04-29 09:12 | 30.86592 | 100.86890 | 34657 ft | 391 kts | 278° |
| 2026-04-29 09:13 | 30.87071 | 100.80598 | 34655 ft | 391 kts | 278° |
| 2026-04-29 09:13 | 30.87543 | 100.74335 | 34661 ft | 391 kts | 278° |
| 2026-04-29 09:14 | 30.88015 | 100.68031 | 34661 ft | 392 kts | 278° |
| 2026-04-29 09:14 | 30.88485 | 100.61723 | 34671 ft | 393 kts | 278° |
| 2026-04-29 09:15 | 30.88950 | 100.55405 | 34671 ft | 392 kts | 279° |
| 2026-04-29 09:15 | 30.89412 | 100.49126 | 34690 ft | 393 kts | 279° |
| 2026-04-29 09:16 | 30.89874 | 100.42798 | 34707 ft | 393 kts | 279° |
| 2026-04-29 09:16 | 30.90331 | 100.36502 | 34707 ft | 392 kts | 278° |
| 2026-04-29 09:17 | 30.90786 | 100.30164 | 34728 ft | 392 kts | 278° |
| 2026-04-29 09:17 | 30.91230 | 100.23855 | 34733 ft | 394 kts | 277° |
| 2026-04-29 09:18 | 30.91680 | 100.17487 | 34742 ft | 394 kts | 278° |
| 2026-04-29 09:18 | 30.92128 | 100.11129 | 34764 ft | 394 kts | 278° |
| 2026-04-29 09:19 | 30.92567 | 100.04780 | 34776 ft | 395 kts | 278° |
| 2026-04-29 09:19 | 30.93013 | 99.98451 | 34790 ft | 394 kts | 278° |
| 2026-04-29 09:20 | 30.93532 | 99.92101 | 34788 ft | 396 kts | 278° |
| 2026-04-29 09:20 | 30.94045 | 99.85753 | 34787 ft | 397 kts | 278° |
| 2026-04-29 09:21 | 30.94552 | 99.79359 | 34779 ft | 396 kts | 278° |
| 2026-04-29 09:21 | 30.95052 | 99.73012 | 34774 ft | 397 kts | 278° |
| 2026-04-29 09:22 | 30.95551 | 99.66615 | 34764 ft | 398 kts | 278° |
| 2026-04-29 09:22 | 30.96048 | 99.60203 | 34757 ft | 397 kts | 278° |
| 2026-04-29 09:23 | 30.96538 | 99.53826 | 34763 ft | 397 kts | 278° |
| 2026-04-29 09:23 | 30.97027 | 99.47392 | 34757 ft | 397 kts | 278° |
| 2026-04-29 09:24 | 30.97509 | 99.40988 | 34745 ft | 398 kts | 278° |
| 2026-04-29 09:24 | 30.97992 | 99.34595 | 34733 ft | 399 kts | 277° |
| 2026-04-29 09:25 | 30.98469 | 99.28184 | 34742 ft | 398 kts | 277° |
| 2026-04-29 09:25 | 30.98943 | 99.21741 | 34735 ft | 401 kts | 277° |
| 2026-04-29 09:26 | 30.99420 | 99.15272 | 34729 ft | 400 kts | 277° |
| 2026-04-29 09:26 | 30.99892 | 99.08839 | 34707 ft | 400 kts | 277° |
| 2026-04-29 09:27 | 31.00360 | 99.02381 | 34692 ft | 400 kts | 277° |
| 2026-04-29 09:27 | 31.00822 | 98.95946 | 34694 ft | 400 kts | 277° |
| 2026-04-29 09:28 | 31.01287 | 98.89495 | 34702 ft | 401 kts | 277° |
| 2026-04-29 09:28 | 31.01744 | 98.83035 | 34727 ft | 401 kts | 277° |
| 2026-04-29 09:29 | 31.02195 | 98.76609 | 34752 ft | 400 kts | 277° |
| 2026-04-29 09:29 | 31.02872 | 98.66908 | 34759 ft | 401 kts | 277° |
| 2026-04-29 09:30 | 31.03394 | 98.60440 | 34757 ft | 402 kts | 278° |
| 2026-04-29 09:30 | 31.03947 | 98.53973 | 34757 ft | 402 kts | 278° |
| 2026-04-29 09:31 | 31.04492 | 98.47499 | 34772 ft | 403 kts | 277° |
| 2026-04-29 09:31 | 31.05022 | 98.41030 | 34777 ft | 403 kts | 277° |
| 2026-04-29 09:32 | 31.05551 | 98.34521 | 34778 ft | 403 kts | 277° |
| 2026-04-29 09:32 | 31.06074 | 98.28067 | 34778 ft | 404 kts | 277° |
| 2026-04-29 09:33 | 31.06599 | 98.21542 | 34789 ft | 405 kts | 277° |
| 2026-04-29 09:33 | 31.07117 | 98.15022 | 34796 ft | 404 kts | 277° |
| 2026-04-29 09:34 | 31.07640 | 98.08541 | 34812 ft | 403 kts | 277° |
| 2026-04-29 09:34 | 31.08173 | 98.02016 | 34824 ft | 404 kts | 277° |
| 2026-04-29 09:35 | 31.08693 | 97.95514 | 34829 ft | 405 kts | 277° |
| 2026-04-29 09:35 | 31.09218 | 97.89006 | 34833 ft | 404 kts | 277° |
| 2026-04-29 09:36 | 31.09730 | 97.82494 | 34829 ft | 404 kts | 277° |
| 2026-04-29 09:36 | 31.10254 | 97.75964 | 34821 ft | 406 kts | 277° |
| 2026-04-29 09:37 | 31.10789 | 97.69474 | 34820 ft | 405 kts | 276° |
| 2026-04-29 09:37 | 31.11306 | 97.62931 | 34833 ft | 405 kts | 277° |
| 2026-04-29 09:38 | 31.11808 | 97.56421 | 34835 ft | 405 kts | 277° |
| 2026-04-29 09:38 | 31.12305 | 97.49895 | 34835 ft | 405 kts | 276° |
| 2026-04-29 09:39 | 31.12796 | 97.43388 | 34836 ft | 405 kts | 277° |
| 2026-04-29 09:39 | 31.13284 | 97.36820 | 34834 ft | 405 kts | 277° |
| 2026-04-29 09:40 | 31.13767 | 97.30308 | 34831 ft | 405 kts | 276° |
| 2026-04-29 09:40 | 31.14066 | 97.23769 | 34839 ft | 405 kts | 272° |
| 2026-04-29 09:41 | 31.13840 | 97.17184 | 34842 ft | 408 kts | 267° |
| 2026-04-29 09:41 | 31.13080 | 97.10644 | 34840 ft | 410 kts | 262° |
| 2026-04-29 09:42 | 31.11819 | 97.04164 | 34845 ft | 412 kts | 259° |
| 2026-04-29 09:42 | 31.10433 | 96.97668 | 34828 ft | 413 kts | 259° |
| 2026-04-29 09:43 | 31.09053 | 96.91222 | 34838 ft | 413 kts | 259° |
| 2026-04-29 09:43 | 31.07654 | 96.84742 | 34837 ft | 412 kts | 259° |
| 2026-04-29 09:44 | 31.06261 | 96.78268 | 34830 ft | 412 kts | 259° |
| 2026-04-29 09:44 | 31.04867 | 96.71845 | 34830 ft | 411 kts | 259° |
| 2026-04-29 09:45 | 31.03464 | 96.65403 | 34828 ft | 411 kts | 259° |
| 2026-04-29 09:45 | 31.02052 | 96.58914 | 34834 ft | 411 kts | 258° |
| 2026-04-29 09:46 | 31.00645 | 96.52490 | 34832 ft | 415 kts | 258° |
| 2026-04-29 09:46 | 30.99215 | 96.45983 | 34833 ft | 416 kts | 258° |
| 2026-04-29 09:47 | 30.97795 | 96.39430 | 34836 ft | 416 kts | 259° |
| 2026-04-29 09:47 | 30.96430 | 96.32884 | 34839 ft | 417 kts | 259° |
| 2026-04-29 09:48 | 30.95063 | 96.26356 | 34843 ft | 419 kts | 258° |
| 2026-04-29 09:48 | 30.93677 | 96.19787 | 34851 ft | 418 kts | 258° |
| 2026-04-29 09:49 | 30.92275 | 96.13208 | 34851 ft | 418 kts | 258° |
| 2026-04-29 09:49 | 30.90881 | 96.06687 | 34858 ft | 418 kts | 258° |
| 2026-04-29 09:50 | 30.89467 | 96.00120 | 34859 ft | 418 kts | 258° |
| 2026-04-29 09:50 | 30.88027 | 95.93549 | 34855 ft | 419 kts | 258° |
| 2026-04-29 09:51 | 30.86610 | 95.87021 | 34854 ft | 418 kts | 258° |
| 2026-04-29 09:51 | 30.85189 | 95.80462 | 34853 ft | 419 kts | 258° |
| 2026-04-29 09:52 | 30.83773 | 95.73946 | 34847 ft | 418 kts | 258° |
| 2026-04-29 09:52 | 30.82410 | 95.67368 | 34837 ft | 420 kts | 258° |
| 2026-04-29 09:53 | 30.81057 | 95.60747 | 34825 ft | 420 kts | 258° |
| 2026-04-29 09:53 | 30.79701 | 95.54163 | 34814 ft | 421 kts | 258° |
| 2026-04-29 09:54 | 30.78337 | 95.47566 | 34808 ft | 421 kts | 258° |
| 2026-04-29 09:54 | 30.76963 | 95.40959 | 34801 ft | 422 kts | 258° |
| 2026-04-29 09:55 | 30.75590 | 95.34373 | 34796 ft | 423 kts | 258° |
| 2026-04-29 09:55 | 30.74212 | 95.27749 | 34801 ft | 422 kts | 257° |
| 2026-04-29 09:56 | 30.72825 | 95.21117 | 34807 ft | 423 kts | 258° |
| 2026-04-29 09:56 | 30.71433 | 95.14490 | 34804 ft | 423 kts | 257° |
| 2026-04-29 09:57 | 30.70041 | 95.07877 | 34796 ft | 426 kts | 257° |
| 2026-04-29 09:57 | 30.68632 | 95.01202 | 34794 ft | 425 kts | 257° |
| 2026-04-29 09:58 | 30.67231 | 94.94598 | 34796 ft | 424 kts | 257° |
| 2026-04-29 09:58 | 30.65820 | 94.87960 | 34801 ft | 425 kts | 257° |
| 2026-04-29 09:59 | 30.64398 | 94.81294 | 34813 ft | 425 kts | 257° |
| 2026-04-29 09:59 | 30.62980 | 94.74651 | 34815 ft | 425 kts | 257° |
| 2026-04-29 10:00 | 30.61552 | 94.67982 | 34822 ft | 426 kts | 257° |
| 2026-04-29 10:00 | 30.60116 | 94.61304 | 34830 ft | 425 kts | 257° |
| 2026-04-29 10:01 | 30.58678 | 94.54642 | 34822 ft | 426 kts | 257° |
| 2026-04-29 10:01 | 30.57242 | 94.47990 | 34811 ft | 427 kts | 257° |
| 2026-04-29 10:02 | 30.55793 | 94.41299 | 34836 ft | 426 kts | 257° |
| 2026-04-29 10:02 | 30.54340 | 94.34630 | 34843 ft | 427 kts | 256° |
| 2026-04-29 10:03 | 30.52895 | 94.27985 | 34846 ft | 426 kts | 256° |
| 2026-04-29 10:03 | 30.51442 | 94.21344 | 34852 ft | 426 kts | 256° |
| 2026-04-29 10:04 | 30.50039 | 94.14685 | 34853 ft | 427 kts | 257° |
| 2026-04-29 10:04 | 30.48675 | 94.08020 | 34852 ft | 426 kts | 257° |
| 2026-04-29 10:05 | 30.47298 | 94.01376 | 34883 ft | 427 kts | 257° |
| 2026-04-29 10:05 | 30.45905 | 93.94692 | 34890 ft | 427 kts | 257° |
| 2026-04-29 10:06 | 30.44505 | 93.88009 | 34895 ft | 428 kts | 257° |
| 2026-04-29 10:06 | 30.43101 | 93.81332 | 34887 ft | 429 kts | 256° |
| 2026-04-29 10:07 | 30.41681 | 93.74614 | 34895 ft | 429 kts | 256° |
| 2026-04-29 10:07 | 30.40270 | 93.67950 | 34877 ft | 428 kts | 256° |
| 2026-04-29 10:08 | 30.38660 | 93.61317 | 34865 ft | 430 kts | 252° |
| 2026-04-29 10:08 | 30.36503 | 93.54859 | 34859 ft | 430 kts | 247° |
| 2026-04-29 10:09 | 30.33996 | 93.48619 | 34865 ft | 429 kts | 246° |
| 2026-04-29 10:09 | 30.31451 | 93.42335 | 34853 ft | 431 kts | 245° |
| 2026-04-29 10:10 | 30.28920 | 93.36106 | 34860 ft | 430 kts | 246° |
| 2026-04-29 10:10 | 30.26372 | 93.29823 | 34871 ft | 431 kts | 245° |
| 2026-04-29 10:11 | 30.23831 | 93.23574 | 34883 ft | 432 kts | 245° |
| 2026-04-29 10:11 | 30.21274 | 93.17305 | 34884 ft | 432 kts | 245° |
| 2026-04-29 10:12 | 30.18698 | 93.11008 | 34876 ft | 432 kts | 245° |
| 2026-04-29 10:12 | 30.16128 | 93.04740 | 34877 ft | 434 kts | 245° |
| 2026-04-29 10:13 | 30.13551 | 92.98465 | 34889 ft | 432 kts | 245° |
| 2026-04-29 10:13 | 30.10980 | 92.92209 | 34889 ft | 431 kts | 245° |
| 2026-04-29 10:14 | 30.08393 | 92.85931 | 34884 ft | 432 kts | 245° |
| 2026-04-29 10:14 | 30.05826 | 92.79708 | 34872 ft | 433 kts | 245° |
| 2026-04-29 10:15 | 30.03225 | 92.73418 | 34858 ft | 433 kts | 245° |
| 2026-04-29 10:15 | 30.00634 | 92.67158 | 34851 ft | 435 kts | 245° |
| 2026-04-29 10:16 | 29.98047 | 92.60925 | 34851 ft | 433 kts | 245° |
| 2026-04-29 10:16 | 29.95442 | 92.54646 | 34855 ft | 434 kts | 244° |
| 2026-04-29 10:17 | 29.92828 | 92.48375 | 34858 ft | 434 kts | 244° |
| 2026-04-29 10:17 | 29.90224 | 92.42127 | 34857 ft | 435 kts | 244° |
| 2026-04-29 10:18 | 29.87599 | 92.35901 | 34864 ft | 433 kts | 244° |
| 2026-04-29 10:18 | 29.84967 | 92.29641 | 34862 ft | 434 kts | 244° |
| 2026-04-29 10:19 | 29.82366 | 92.23429 | 34861 ft | 434 kts | 244° |
| 2026-04-29 10:19 | 29.79749 | 92.17188 | 34862 ft | 434 kts | 244° |
| 2026-04-29 10:20 | 29.77124 | 92.10941 | 34860 ft | 433 kts | 244° |
| 2026-04-29 10:20 | 29.74505 | 92.04723 | 34857 ft | 434 kts | 244° |
| 2026-04-29 10:21 | 29.71881 | 91.98502 | 34852 ft | 435 kts | 243° |
| 2026-04-29 10:21 | 29.69247 | 91.92268 | 34853 ft | 433 kts | 243° |
| 2026-04-29 10:22 | 29.66606 | 91.86024 | 34863 ft | 434 kts | 243° |
| 2026-04-29 10:22 | 29.63975 | 91.79815 | 34859 ft | 432 kts | 243° |
| 2026-04-29 10:23 | 29.61337 | 91.73603 | 34861 ft | 432 kts | 243° |
| 2026-04-29 10:23 | 29.58711 | 91.67423 | 34856 ft | 432 kts | 243° |
| 2026-04-29 10:24 | 29.56060 | 91.61195 | 34856 ft | 434 kts | 243° |
| 2026-04-29 10:24 | 29.53410 | 91.54982 | 34856 ft | 434 kts | 243° |
| 2026-04-29 10:25 | 29.50746 | 91.48748 | 34850 ft | 436 kts | 243° |
| 2026-04-29 10:25 | 29.48094 | 91.42546 | 34854 ft | 436 kts | 243° |
| 2026-04-29 10:26 | 29.45425 | 91.36322 | 34848 ft | 427 kts | 243° |
| 2026-04-29 10:26 | 29.44132 | 91.33306 | 34851 ft | 410 kts | 243° |
| 2026-04-29 10:26 | 29.42917 | 91.30460 | 34855 ft | 394 kts | 243° |
| 2026-04-29 10:27 | 29.40597 | 91.25050 | 34850 ft | 364 kts | 242° |
| 2026-04-29 10:27 | 29.39493 | 91.22488 | 34843 ft | 349 kts | 242° |
| 2026-04-29 10:27 | 29.38449 | 91.20070 | 34850 ft | 338 kts | 242° |
| 2026-04-29 10:28 | 29.37412 | 91.17668 | 34848 ft | 336 kts | 242° |
| 2026-04-29 10:28 | 29.35346 | 91.12891 | 34852 ft | 336 kts | 242° |
| 2026-04-29 10:29 | 29.33268 | 91.08094 | 34856 ft | 336 kts | 242° |
| 2026-04-29 10:29 | 29.31261 | 91.03227 | 34859 ft | 337 kts | 248° |
| 2026-04-29 10:30 | 29.30112 | 90.98013 | 34857 ft | 339 kts | 260° |
| 2026-04-29 10:30 | 29.29996 | 90.92608 | 34865 ft | 344 kts | 269° |
| 2026-04-29 10:31 | 29.30214 | 90.87138 | 34863 ft | 343 kts | 269° |
| 2026-04-29 10:31 | 29.30434 | 90.81683 | 34875 ft | 344 kts | 269° |
| 2026-04-29 10:32 | 29.30648 | 90.76233 | 34890 ft | 343 kts | 269° |
| 2026-04-29 10:32 | 29.30853 | 90.70798 | 34895 ft | 345 kts | 268° |
| 2026-04-29 10:33 | 29.31061 | 90.65319 | 34891 ft | 346 kts | 268° |
| 2026-04-29 10:33 | 29.31264 | 90.59849 | 34890 ft | 345 kts | 268° |
| 2026-04-29 10:34 | 29.31467 | 90.54360 | 34898 ft | 344 kts | 268° |
| 2026-04-29 10:34 | 29.31664 | 90.48894 | 34904 ft | 344 kts | 268° |
| 2026-04-29 10:35 | 29.31858 | 90.43432 | 34913 ft | 344 kts | 268° |
| 2026-04-29 10:35 | 29.31954 | 90.40687 | 34693 ft | 344 kts | 268° |
| 2026-04-29 10:35 | 29.32047 | 90.37977 | 34406 ft | 342 kts | 268° |
| 2026-04-29 10:35 | 29.32142 | 90.35258 | 34116 ft | 342 kts | 268° |
| 2026-04-29 10:36 | 29.32239 | 90.32549 | 33831 ft | 341 kts | 268° |
| 2026-04-29 10:36 | 29.32333 | 90.29843 | 33544 ft | 340 kts | 268° |
| 2026-04-29 10:36 | 29.32552 | 90.27161 | 33242 ft | 344 kts | 279° |
| 2026-04-29 10:36 | 29.33399 | 90.24600 | 32960 ft | 350 kts | 296° |
| 2026-04-29 10:37 | 29.34894 | 90.22362 | 32694 ft | 356 kts | 313° |
| 2026-04-29 10:37 | 29.36905 | 90.20694 | 32434 ft | 362 kts | 330° |
| 2026-04-29 10:37 | 29.39297 | 90.19755 | 32168 ft | 367 kts | 348° |
| 2026-04-29 10:37 | 29.41862 | 90.19674 | 31905 ft | 371 kts | 7° |
| 2026-04-29 10:38 | 29.44333 | 90.20480 | 31645 ft | 371 kts | 26° |
| 2026-04-29 10:38 | 29.46467 | 90.22103 | 31385 ft | 369 kts | 44° |
| 2026-04-29 10:38 | 29.48058 | 90.24361 | 31123 ft | 365 kts | 63° |
| 2026-04-29 10:38 | 29.48980 | 90.27023 | 30863 ft | 360 kts | 81° |
| 2026-04-29 10:39 | 29.49182 | 90.29847 | 30601 ft | 354 kts | 98° |
| 2026-04-29 10:39 | 29.48668 | 90.32587 | 30335 ft | 347 kts | 115° |
| 2026-04-29 10:39 | 29.47546 | 90.34961 | 30078 ft | 339 kts | 131° |
| 2026-04-29 10:39 | 29.45906 | 90.36873 | 29810 ft | 332 kts | 147° |
| 2026-04-29 10:40 | 29.43930 | 90.38171 | 29546 ft | 326 kts | 162° |
| 2026-04-29 10:40 | 29.41761 | 90.38809 | 29259 ft | 321 kts | 177° |
| 2026-04-29 10:40 | 29.39542 | 90.38972 | 28964 ft | 321 kts | 176° |
| 2026-04-29 10:40 | 29.37346 | 90.39456 | 28719 ft | 323 kts | 165° |
| 2026-04-29 10:41 | 29.35311 | 90.40561 | 28484 ft | 327 kts | 148° |
| 2026-04-29 10:41 | 29.33602 | 90.42258 | 28202 ft | 331 kts | 133° |
| 2026-04-29 10:41 | 29.32339 | 90.44466 | 27873 ft | 333 kts | 116° |
| 2026-04-29 10:41 | 29.31650 | 90.47004 | 27536 ft | 335 kts | 100° |
| 2026-04-29 10:42 | 29.31464 | 90.49654 | 27228 ft | 335 kts | 94° |
| 2026-04-29 10:42 | 29.31387 | 90.52312 | 26956 ft | 334 kts | 94° |
| 2026-04-29 10:42 | 29.31319 | 90.54929 | 26724 ft | 332 kts | 94° |
| 2026-04-29 10:42 | 29.31239 | 90.57580 | 26490 ft | 331 kts | 94° |
| 2026-04-29 10:43 | 29.31152 | 90.60213 | 26233 ft | 330 kts | 95° |
| 2026-04-29 10:43 | 29.31062 | 90.62794 | 25941 ft | 327 kts | 95° |
| 2026-04-29 10:43 | 29.30967 | 90.65403 | 25609 ft | 324 kts | 95° |
| 2026-04-29 10:43 | 29.30872 | 90.67967 | 25265 ft | 322 kts | 95° |
| 2026-04-29 10:44 | 29.30779 | 90.70480 | 25013 ft | 316 kts | 95° |
| 2026-04-29 10:44 | 29.30682 | 90.72999 | 24949 ft | 317 kts | 95° |
| 2026-04-29 10:44 | 29.30586 | 90.75522 | 24864 ft | 317 kts | 95° |
| 2026-04-29 10:44 | 29.30489 | 90.78047 | 24781 ft | 317 kts | 95° |
| 2026-04-29 10:45 | 29.30392 | 90.80563 | 24713 ft | 317 kts | 95° |
| 2026-04-29 10:45 | 29.30295 | 90.83051 | 24651 ft | 316 kts | 96° |
| 2026-04-29 10:45 | 29.30197 | 90.85568 | 24592 ft | 315 kts | 95° |
| 2026-04-29 10:45 | 29.30099 | 90.88088 | 24536 ft | 314 kts | 95° |
| 2026-04-29 10:46 | 29.30003 | 90.90556 | 24488 ft | 314 kts | 96° |
| 2026-04-29 10:46 | 29.29903 | 90.93037 | 24441 ft | 313 kts | 95° |
| 2026-04-29 10:46 | 29.29802 | 90.95556 | 24393 ft | 312 kts | 96° |
| 2026-04-29 10:46 | 29.29703 | 90.98004 | 24339 ft | 312 kts | 95° |
| 2026-04-29 10:47 | 29.29646 | 91.00496 | 24093 ft | 314 kts | 92° |
| 2026-04-29 10:47 | 29.29703 | 91.02978 | 23755 ft | 312 kts | 90° |
| 2026-04-29 10:47 | 29.29781 | 91.05467 | 23429 ft | 310 kts | 90° |
| 2026-04-29 10:47 | 29.29862 | 91.07909 | 23114 ft | 308 kts | 90° |
| 2026-04-29 10:48 | 29.29939 | 91.10358 | 22798 ft | 306 kts | 91° |
| 2026-04-29 10:48 | 29.30014 | 91.12772 | 22495 ft | 303 kts | 91° |
| 2026-04-29 10:48 | 29.30087 | 91.15148 | 22195 ft | 301 kts | 91° |
| 2026-04-29 10:48 | 29.30157 | 91.17524 | 21892 ft | 298 kts | 91° |
| 2026-04-29 10:49 | 29.30225 | 91.19875 | 21591 ft | 296 kts | 91° |
| 2026-04-29 10:49 | 29.30294 | 91.22249 | 21287 ft | 294 kts | 91° |
| 2026-04-29 10:49 | 29.30362 | 91.24552 | 20989 ft | 293 kts | 91° |
| 2026-04-29 10:49 | 29.30430 | 91.26893 | 20673 ft | 291 kts | 91° |
| 2026-04-29 10:50 | 29.30497 | 91.29192 | 20361 ft | 289 kts | 91° |
| 2026-04-29 10:50 | 29.30560 | 91.31490 | 19913 ft | 294 kts | 90° |
| 2026-04-29 10:50 | 29.30624 | 91.33852 | 19363 ft | 302 kts | 90° |
| 2026-04-29 10:50 | 29.30864 | 91.36253 | 18969 ft | 305 kts | 74° |
| 2026-04-29 10:51 | 29.31859 | 91.38318 | 18824 ft | 300 kts | 48° |
| 2026-04-29 10:51 | 29.33547 | 91.39676 | 18833 ft | 290 kts | 21° |
| 2026-04-29 10:51 | 29.35495 | 91.40009 | 18873 ft | 281 kts | 353° |
| 2026-04-29 10:51 | 29.37331 | 91.39317 | 18868 ft | 281 kts | 324° |
| 2026-04-29 10:52 | 29.38694 | 91.37757 | 18837 ft | 280 kts | 297° |
| 2026-04-29 10:52 | 29.39282 | 91.35648 | 18869 ft | 276 kts | 269° |
| 2026-04-29 10:52 | 29.38985 | 91.33543 | 18838 ft | 271 kts | 242° |
| 2026-04-29 10:52 | 29.37871 | 91.31834 | 18845 ft | 265 kts | 214° |
| 2026-04-29 10:53 | 29.36241 | 91.30952 | 18846 ft | 260 kts | 188° |
| 2026-04-29 10:53 | 29.34429 | 91.30617 | 18833 ft | 264 kts | 192° |
| 2026-04-29 10:53 | 29.32761 | 91.29729 | 18599 ft | 267 kts | 218° |
| 2026-04-29 10:53 | 29.31600 | 91.28065 | 18324 ft | 269 kts | 241° |
| 2026-04-29 10:54 | 29.30889 | 91.26095 | 17976 ft | 274 kts | 252° |
| 2026-04-29 10:54 | 29.30567 | 91.23917 | 17577 ft | 279 kts | 265° |
| 2026-04-29 10:54 | 29.30551 | 91.21703 | 17163 ft | 283 kts | 269° |
| 2026-04-29 10:54 | 29.30596 | 91.19411 | 16731 ft | 287 kts | 269° |
| 2026-04-29 10:55 | 29.30606 | 91.17127 | 16297 ft | 291 kts | 268° |
| 2026-04-29 10:55 | 29.30576 | 91.14803 | 15868 ft | 293 kts | 267° |
| 2026-04-29 10:55 | 29.30529 | 91.12538 | 15690 ft | 270 kts | 267° |
| 2026-04-29 10:55 | 29.30485 | 91.10525 | 15654 ft | 241 kts | 267° |
| 2026-04-29 10:56 | 29.30454 | 91.08684 | 15184 ft | 235 kts | 268° |
| 2026-04-29 10:56 | 29.30442 | 91.06776 | 14215 ft | 247 kts | 268° |
| 2026-04-29 10:56 | 29.30440 | 91.04820 | 13522 ft | 241 kts | 268° |
| 2026-04-29 10:56 | 29.30436 | 91.02971 | 13151 ft | 222 kts | 269° |
| 2026-04-29 10:57 | 29.30417 | 91.01341 | 13056 ft | 194 kts | 267° |
| 2026-04-29 10:57 | 29.30376 | 90.99855 | 12844 ft | 177 kts | 265° |
| 2026-04-29 10:57 | 29.30310 | 90.98503 | 12652 ft | 165 kts | 264° |
| 2026-04-29 10:57 | 29.30237 | 90.97193 | 12521 ft | 165 kts | 265° |
| 2026-04-29 10:58 | 29.30211 | 90.95895 | 12388 ft | 165 kts | 268° |
| 2026-04-29 10:58 | 29.30208 | 90.94582 | 12183 ft | 164 kts | 267° |
| 2026-04-29 10:58 | 29.30182 | 90.93277 | 11984 ft | 164 kts | 266° |
| 2026-04-29 10:58 | 29.30159 | 90.92003 | 11914 ft | 150 kts | 266° |
| 2026-04-29 10:59 | 29.30143 | 90.90955 | 11915 ft | 105 kts | 269° |
| 2026-04-29 10:59 | 29.30131 | 90.90327 | 11921 ft | 50 kts | 261° |
| 2026-04-29 10:59 | 29.30060 | 90.90082 | 11920 ft | 16 kts | 242° |
| 2026-04-29 10:59 | 29.29982 | 90.90041 | 11920 ft | 15 kts | 119° |
| 2026-04-29 11:00 | 29.29977 | 90.90157 | 11920 ft | 14 kts | 89° |
| 2026-04-29 11:00 | 29.29978 | 90.90271 | 11921 ft | 13 kts | 88° |
| 2026-04-29 11:00 | 29.29979 | 90.90389 | 11922 ft | 17 kts | 89° |
| 2026-04-29 11:00 | 29.29982 | 90.90546 | 11920 ft | 21 kts | 89° |
| 2026-04-29 11:01 | 29.29986 | 90.90766 | 11918 ft | 41 kts | 89° |
| 2026-04-29 11:01 | 29.29991 | 90.91123 | 11914 ft | 44 kts | 90° |
| 2026-04-29 11:01 | 29.29996 | 90.91464 | 11914 ft | 40 kts | 89° |
| 2026-04-29 11:01 | 29.30000 | 90.91777 | 11914 ft | 38 kts | 88° |
| 2026-04-29 11:02 | 29.30006 | 90.92109 | 11913 ft | 43 kts | 88° |
| 2026-04-29 11:02 | 29.30012 | 90.92472 | 11912 ft | 45 kts | 88° |
| 2026-04-29 11:02 | 29.30016 | 90.92823 | 11911 ft | 42 kts | 89° |
| 2026-04-29 11:02 | 29.30021 | 90.93115 | 11910 ft | 24 kts | 89° |
| 2026-04-29 11:03 | 29.29976 | 90.93258 | 11909 ft | 9 kts | 175° |
| 2026-04-29 11:03 | 29.29907 | 90.93263 | 11908 ft | 10 kts | 176° |
| 2026-04-29 11:03 | 29.29753 | 90.93273 | 11907 ft | 18 kts | 179° |
| 2026-04-29 11:03 | 29.29675 | 90.93195 | 11907 ft | 17 kts | 266° |
| 2026-04-29 11:04 | 29.29671 | 90.92994 | 11911 ft | 42 kts | 269° |
| 2026-04-29 11:04 | 29.29665 | 90.92652 | 11911 ft | 41 kts | 268° |
| 2026-04-29 11:04 | 29.29661 | 90.92333 | 11912 ft | 38 kts | 269° |
| 2026-04-29 11:04 | 29.29656 | 90.92036 | 11912 ft | 36 kts | 269° |
| 2026-04-29 11:05 | 29.29652 | 90.91726 | 11913 ft | 41 kts | 269° |
| 2026-04-29 11:05 | 29.29648 | 90.91399 | 11913 ft | 40 kts | 268° |
| 2026-04-29 11:05 | 29.29642 | 90.91062 | 11917 ft | 43 kts | 269° |
| 2026-04-29 11:05 | 29.29638 | 90.90739 | 11923 ft | 39 kts | 269° |
| 2026-04-29 11:06 | 29.29633 | 90.90392 | 11925 ft | 44 kts | 268° |
| 2026-04-29 11:06 | 29.29628 | 90.90091 | 11923 ft | 19 kts | 269° |
| 2026-04-29 11:06 | 29.29570 | 90.90002 | 11923 ft | 15 kts | 181° |
| 2026-04-29 11:06 | 29.29522 | 90.89923 | 11924 ft | 13 kts | 270° |
| 2026-04-29 11:07 | 29.29516 | 90.89816 | 11924 ft | 13 kts | 239° |
| 2026-04-29 11:07 | 29.29430 | 90.89799 | 11924 ft | 7 kts | 179° |
| 2026-04-29 11:07 | 29.29429 | 90.89799 | 11924 ft | 0 kts | 179° |